Terminal Aerodrome Forecast
Issued by NWS

Home | Current Version | Previous Version | Text Only | Print | Product List | Glossary On
Versions: 1 2 3 4 5 6 7 8 9 10 11 12 13 14 15 16 17 18
000
FTAK31 PANC 282208 AAB
TAFADL
TAF AMD
PADL 282208Z 2822/2918 21010G20KT P6SM -SHRA SCT015 BKN045
      TEMPO 2822/2824 BKN015
     FM290200 20008KT P6SM BKN035
     FM291200 34004KT P6SM VCFG FEW005 SCT030=

USA.gov is the U.S. government's official web portal to all federal, state and local government web resources and services.